sensor_id;sensor_type;location;lat;lon;timestamp;pressure;altitude;pressure_sealevel;temperature;humidity
36258;BME280;22294;52.044;4.582;2022-09-09T00:01:56;75259.66;;;-144.37;68.05
36258;BME280;22294;52.044;4.582;2022-09-09T00:04:32;75269.88;;;-144.37;68.34
36258;BME280;22294;52.044;4.582;2022-09-09T00:12:46;75253.50;;;-144.37;68.40
36258;BME280;22294;52.044;4.582;2022-09-09T00:15:16;75247.38;;;-144.37;68.54
36258;BME280;22294;52.044;4.582;2022-09-09T00:17:56;75253.50;;;-144.37;68.49
36258;BME280;22294;52.044;4.582;2022-09-09T00:20:33;75255.56;;;-144.37;69.01
36258;BME280;22294;52.044;4.582;2022-09-09T00:23:14;75259.66;;;-144.37;68.92
36258;BME280;22294;52.044;4.582;2022-09-09T00:26:13;75265.78;;;-144.37;68.98
36258;BME280;22294;52.044;4.582;2022-09-09T00:28:48;75263.72;;;-144.37;69.03
36258;BME280;22294;52.044;4.582;2022-09-09T00:31:20;75276.00;;;-144.37;69.29
36258;BME280;22294;52.044;4.582;2022-09-09T00:33:48;75276.00;;;-144.37;69.41
36258;BME280;22294;52.044;4.582;2022-09-09T00:36:18;75271.91;;;-144.37;69.79
36258;BME280;22294;52.044;4.582;2022-09-09T00:38:49;75284.19;;;-144.37;69.89
36258;BME280;22294;52.044;4.582;2022-09-09T00:46:56;75294.41;;;-144.37;70.19
36258;BME280;22294;52.044;4.582;2022-09-09T00:49:37;75306.66;;;-144.37;70.13
36258;BME280;22294;52.044;4.582;2022-09-09T00:57:57;75316.91;;;-144.37;70.70
36258;BME280;22294;52.044;4.582;2022-09-09T01:00:30;75320.97;;;-144.37;70.89
36258;BME280;22294;52.044;4.582;2022-09-09T01:10:59;75327.13;;;-144.37;70.89
36258;BME280;22294;52.044;4.582;2022-09-09T01:13:33;75331.22;;;-144.37;71.28
36258;BME280;22294;52.044;4.582;2022-09-09T01:16:03;75331.22;;;-144.37;71.17
36258;BME280;22294;52.044;4.582;2022-09-09T01:18:32;75335.28;;;-144.37;71.42
36258;BME280;22294;52.044;4.582;2022-09-09T01:23:38;75339.38;;;-144.37;71.88
36258;BME280;22294;52.044;4.582;2022-09-09T01:26:26;75329.16;;;-144.37;71.71
36258;BME280;22294;52.044;4.582;2022-09-09T01:28:52;75335.28;;;-144.37;72.05
36258;BME280;22294;52.044;4.582;2022-09-09T01:31:21;75327.13;;;-144.37;72.04
36258;BME280;22294;52.044;4.582;2022-09-09T01:33:48;75323.03;;;-144.37;72.34
36258;BME280;22294;52.044;4.582;2022-09-09T01:36:47;75323.03;;;-144.37;72.24
36258;BME280;22294;52.044;4.582;2022-09-09T01:39:16;75320.97;;;-144.37;72.21
36258;BME280;22294;52.044;4.582;2022-09-09T01:41:41;75323.03;;;-144.37;72.34
36258;BME280;22294;52.044;4.582;2022-09-09T01:44:07;75327.13;;;-144.37;72.28
36258;BME280;22294;52.044;4.582;2022-09-09T01:46:33;75323.03;;;-144.37;71.95
36258;BME280;22294;52.044;4.582;2022-09-09T01:48:59;75323.03;;;-144.37;71.88
36258;BME280;22294;52.044;4.582;2022-09-09T01:51:25;75320.97;;;-144.37;71.86
36258;BME280;22294;52.044;4.582;2022-09-09T01:53:51;75323.03;;;-144.37;72.01
36258;BME280;22294;52.044;4.582;2022-09-09T01:59:18;75329.16;;;-144.37;72.28
36258;BME280;22294;52.044;4.582;2022-09-09T02:04:54;75325.06;;;-144.37;72.04
36258;BME280;22294;52.044;4.582;2022-09-09T02:07:42;75306.66;;;-144.37;71.79
36258;BME280;22294;52.044;4.582;2022-09-09T02:12:55;75308.72;;;-144.37;71.74
36258;BME280;22294;52.044;4.582;2022-09-09T02:15:30;75310.75;;;-144.37;71.56
36258;BME280;22294;52.044;4.582;2022-09-09T02:17:58;75304.63;;;-144.37;71.83
36258;BME280;22294;52.044;4.582;2022-09-09T02:20:24;75306.66;;;-144.37;71.45
36258;BME280;22294;52.044;4.582;2022-09-09T02:22:53;75312.81;;;-144.37;71.66
36258;BME280;22294;52.044;4.582;2022-09-09T02:25:21;75302.59;;;-144.37;71.63
36258;BME280;22294;52.044;4.582;2022-09-09T02:27:50;75310.75;;;-144.37;71.56
36258;BME280;22294;52.044;4.582;2022-09-09T02:30:16;75306.66;;;-144.37;71.34
36258;BME280;22294;52.044;4.582;2022-09-09T02:32:43;75316.91;;;-144.37;71.28
36258;BME280;22294;52.044;4.582;2022-09-09T02:35:12;75316.91;;;-144.37;71.44
36258;BME280;22294;52.044;4.582;2022-09-09T02:37:40;75318.94;;;-144.37;71.59
36258;BME280;22294;52.044;4.582;2022-09-09T02:40:08;75320.97;;;-144.37;71.43
36258;BME280;22294;52.044;4.582;2022-09-09T02:42:42;75327.13;;;-144.37;71.67
36258;BME280;22294;52.044;4.582;2022-09-09T02:45:09;75323.03;;;-144.37;71.92
36258;BME280;22294;52.044;4.582;2022-09-09T02:47:38;75314.84;;;-144.37;71.76
36258;BME280;22294;52.044;4.582;2022-09-09T02:50:17;75320.97;;;-144.37;71.66
36258;BME280;22294;52.044;4.582;2022-09-09T02:53:02;75320.97;;;-144.37;71.79
36258;BME280;22294;52.044;4.582;2022-09-09T02:55:50;75318.94;;;-144.37;71.47
36258;BME280;22294;52.044;4.582;2022-09-09T02:58:20;75323.03;;;-144.37;71.89
36258;BME280;22294;52.044;4.582;2022-09-09T03:00:48;75318.94;;;-144.37;71.67
36258;BME280;22294;52.044;4.582;2022-09-09T03:03:13;75316.91;;;-144.37;71.53
36258;BME280;22294;52.044;4.582;2022-09-09T03:05:42;75308.72;;;-144.37;71.67
36258;BME280;22294;52.044;4.582;2022-09-09T03:08:08;75316.91;;;-144.37;71.71
36258;BME280;22294;52.044;4.582;2022-09-09T03:10:34;75316.91;;;-144.37;71.62
36258;BME280;22294;52.044;4.582;2022-09-09T03:13:00;75316.91;;;-144.37;71.80
36258;BME280;22294;52.044;4.582;2022-09-09T03:15:25;75316.91;;;-144.37;71.95
36258;BME280;22294;52.044;4.582;2022-09-09T03:17:54;75310.75;;;-144.37;71.98
36258;BME280;22294;52.044;4.582;2022-09-09T03:20:20;75310.75;;;-144.37;72.04
36258;BME280;22294;52.044;4.582;2022-09-09T03:22:45;75320.97;;;-144.37;71.77
36258;BME280;22294;52.044;4.582;2022-09-09T03:25:10;75325.06;;;-144.37;72.10
36258;BME280;22294;52.044;4.582;2022-09-09T03:27:35;75308.72;;;-144.37;71.92
36258;BME280;22294;52.044;4.582;2022-09-09T03:30:01;75316.91;;;-144.37;71.86
36258;BME280;22294;52.044;4.582;2022-09-09T03:32:28;75316.91;;;-144.37;72.01
36258;BME280;22294;52.044;4.582;2022-09-09T03:34:54;75320.97;;;-144.37;71.61
36258;BME280;22294;52.044;4.582;2022-09-09T03:37:19;75325.06;;;-144.37;71.70
36258;BME280;22294;52.044;4.582;2022-09-09T03:39:45;75323.03;;;-144.37;71.53
36258;BME280;22294;52.044;4.582;2022-09-09T03:42:14;75325.06;;;-144.37;71.57
36258;BME280;22294;52.044;4.582;2022-09-09T03:44:40;75327.13;;;-144.37;71.72
36258;BME280;22294;52.044;4.582;2022-09-09T03:47:07;75339.38;;;-144.37;71.80
36258;BME280;22294;52.044;4.582;2022-09-09T03:49:32;75335.28;;;-144.37;71.83
36258;BME280;22294;52.044;4.582;2022-09-09T03:51:57;75335.28;;;-144.37;72.53
36258;BME280;22294;52.044;4.582;2022-09-09T03:54:24;75333.25;;;-144.37;71.83
36258;BME280;22294;52.044;4.582;2022-09-09T03:56:50;75335.28;;;-144.37;71.83
36258;BME280;22294;52.044;4.582;2022-09-09T03:59:16;75341.44;;;-144.37;71.84
36258;BME280;22294;52.044;4.582;2022-09-09T04:01:41;75331.22;;;-144.37;71.77
36258;BME280;22294;52.044;4.582;2022-09-09T04:04:07;75329.16;;;-144.37;71.74
36258;BME280;22294;52.044;4.582;2022-09-09T04:06:32;75331.22;;;-144.37;71.48
36258;BME280;22294;52.044;4.582;2022-09-09T04:08:58;75331.22;;;-144.37;71.71
36258;BME280;22294;52.044;4.582;2022-09-09T04:11:23;75339.38;;;-144.37;71.85
36258;BME280;22294;52.044;4.582;2022-09-09T04:13:48;75331.22;;;-144.37;71.78
36258;BME280;22294;52.044;4.582;2022-09-09T04:16:14;75331.22;;;-144.37;71.77
36258;BME280;22294;52.044;4.582;2022-09-09T04:18:40;75323.03;;;-144.37;71.68
36258;BME280;22294;52.044;4.582;2022-09-09T04:21:05;75320.97;;;-144.37;71.46
36258;BME280;22294;52.044;4.582;2022-09-09T04:23:33;75314.84;;;-144.37;71.41
36258;BME280;22294;52.044;4.582;2022-09-09T04:26:00;75308.72;;;-144.37;71.68
36258;BME280;22294;52.044;4.582;2022-09-09T04:28:29;75310.75;;;-144.37;71.67
36258;BME280;22294;52.044;4.582;2022-09-09T04:30:55;75314.84;;;-144.37;71.50
36258;BME280;22294;52.044;4.582;2022-09-09T04:33:23;75302.59;;;-144.37;71.16
36258;BME280;22294;52.044;4.582;2022-09-09T04:35:50;75306.66;;;-144.37;71.34
36258;BME280;22294;52.044;4.582;2022-09-09T04:38:19;75314.84;;;-144.37;71.41
36258;BME280;22294;52.044;4.582;2022-09-09T04:40:47;75308.72;;;-144.37;71.36
36258;BME280;22294;52.044;4.582;2022-09-09T04:43:13;75316.91;;;-144.37;71.31
36258;BME280;22294;52.044;4.582;2022-09-09T04:45:39;75323.03;;;-144.37;71.40
36258;BME280;22294;52.044;4.582;2022-09-09T04:48:06;75318.94;;;-144.37;71.30
36258;BME280;22294;52.044;4.582;2022-09-09T04:50:31;75310.75;;;-144.37;71.22
36258;BME280;22294;52.044;4.582;2022-09-09T04:53:00;75308.72;;;-144.37;71.41
36258;BME280;22294;52.044;4.582;2022-09-09T04:55:25;75304.63;;;-144.37;71.59
36258;BME280;22294;52.044;4.582;2022-09-09T04:57:51;75316.91;;;-144.37;71.53
36258;BME280;22294;52.044;4.582;2022-09-09T05:00:16;75314.84;;;-144.37;71.56
36258;BME280;22294;52.044;4.582;2022-09-09T05:02:42;75314.84;;;-144.37;71.75
36258;BME280;22294;52.044;4.582;2022-09-09T05:05:07;75318.94;;;-144.37;71.85
36258;BME280;22294;52.044;4.582;2022-09-09T05:07:33;75320.97;;;-144.37;71.72
36258;BME280;22294;52.044;4.582;2022-09-09T05:09:58;75327.13;;;-144.37;72.02
36258;BME280;22294;52.044;4.582;2022-09-09T05:12:24;75335.28;;;-144.37;72.05
36258;BME280;22294;52.044;4.582;2022-09-09T05:14:51;75345.53;;;-144.37;72.33
36258;BME280;22294;52.044;4.582;2022-09-09T05:17:16;75345.53;;;-144.37;72.49
36258;BME280;22294;52.044;4.582;2022-09-09T05:19:42;75345.53;;;-144.37;72.58
36258;BME280;22294;52.044;4.582;2022-09-09T05:22:08;75349.59;;;-144.37;72.68
36258;BME280;22294;52.044;4.582;2022-09-09T05:24:33;75351.66;;;-144.37;72.95
36258;BME280;22294;52.044;4.582;2022-09-09T05:26:59;75343.47;;;-144.37;73.08
36258;BME280;22294;52.044;4.582;2022-09-09T05:29:26;75341.44;;;-144.37;73.01
36258;BME280;22294;52.044;4.582;2022-09-09T05:31:52;75335.28;;;-144.37;73.08
36258;BME280;22294;52.044;4.582;2022-09-09T05:34:17;75337.34;;;-144.37;73.22
36258;BME280;22294;52.044;4.582;2022-09-09T05:36:43;75333.25;;;-144.37;73.22
36258;BME280;22294;52.044;4.582;2022-09-09T05:39:08;75327.13;;;-144.37;73.22
36258;BME280;22294;52.044;4.582;2022-09-09T05:41:34;75327.13;;;-144.37;73.61
36258;BME280;22294;52.044;4.582;2022-09-09T05:44:00;75318.94;;;-144.37;73.43
36258;BME280;22294;52.044;4.582;2022-09-09T05:46:26;75304.63;;;-144.37;73.49
36258;BME280;22294;52.044;4.582;2022-09-09T05:48:52;75292.34;;;-144.37;73.31
36258;BME280;22294;52.044;4.582;2022-09-09T05:51:21;75290.31;;;-144.37;73.14
36258;BME280;22294;52.044;4.582;2022-09-09T05:53:47;75286.22;;;-144.37;73.19
36258;BME280;22294;52.044;4.582;2022-09-09T05:56:14;75286.22;;;-144.37;73.19
36258;BME280;22294;52.044;4.582;2022-09-09T05:58:40;75284.19;;;-144.37;73.16
36258;BME280;22294;52.044;4.582;2022-09-09T06:01:14;75271.91;;;-144.37;72.96
36258;BME280;22294;52.044;4.582;2022-09-09T06:03:41;75249.41;;;-144.37;72.65
36258;BME280;22294;52.044;4.582;2022-09-09T06:06:09;75233.06;;;-144.37;72.32
36258;BME280;22294;52.044;4.582;2022-09-09T06:08:39;75212.63;;;-144.37;71.62
36258;BME280;22294;52.044;4.582;2022-09-09T06:11:10;75196.25;;;-144.37;71.19
36258;BME280;22294;52.044;4.582;2022-09-09T06:13:36;75190.13;;;-144.37;70.78
36258;BME280;22294;52.044;4.582;2022-09-09T06:16:15;75173.75;;;-144.37;69.92
36258;BME280;22294;52.044;4.582;2022-09-09T06:18:41;75177.84;;;-144.37;69.83
36258;BME280;22294;52.044;4.582;2022-09-09T06:21:11;75171.72;;;-144.37;69.71
36258;BME280;22294;52.044;4.582;2022-09-09T06:23:39;75175.81;;;-144.37;69.30
36258;BME280;22294;52.044;4.582;2022-09-09T06:26:11;75171.72;;;-144.37;69.35
36258;BME280;22294;52.044;4.582;2022-09-09T06:28:36;75173.75;;;-144.37;69.64
36258;BME280;22294;52.044;4.582;2022-09-09T06:31:07;75171.72;;;-144.37;69.51
36258;BME280;22294;52.044;4.582;2022-09-09T06:33:35;75169.69;;;-144.37;69.58
36258;BME280;22294;52.044;4.582;2022-09-09T06:36:02;75179.91;;;-144.37;69.40
36258;BME280;22294;52.044;4.582;2022-09-09T06:38:28;75179.91;;;-144.37;69.16
36258;BME280;22294;52.044;4.582;2022-09-09T06:40:55;75169.69;;;-144.37;69.20
36258;BME280;22294;52.044;4.582;2022-09-09T06:43:30;75161.50;;;-144.37;69.14
36258;BME280;22294;52.044;4.582;2022-09-09T06:46:04;75159.44;;;-144.37;68.88
36258;BME280;22294;52.044;4.582;2022-09-09T06:48:29;75165.59;;;-144.37;68.90
36258;BME280;22294;52.044;4.582;2022-09-09T06:53:35;75169.69;;;-144.37;69.02
36258;BME280;22294;52.044;4.582;2022-09-09T06:58:54;75161.50;;;-144.37;68.60
36258;BME280;22294;52.044;4.582;2022-09-09T07:01:22;75171.72;;;-144.37;68.64
36258;BME280;22294;52.044;4.582;2022-09-09T07:03:49;75169.69;;;-144.37;68.92
36258;BME280;22294;52.044;4.582;2022-09-09T07:06:23;75161.50;;;-144.37;68.94
36258;BME280;22294;52.044;4.582;2022-09-09T07:08:56;75149.22;;;-144.37;68.72
36258;BME280;22294;52.044;4.582;2022-09-09T07:11:30;75139.00;;;-144.37;68.25
36258;BME280;22294;52.044;4.582;2022-09-09T07:13:57;75147.19;;;-144.37;68.42
36258;BME280;22294;52.044;4.582;2022-09-09T07:16:23;75147.19;;;-144.37;68.52
36258;BME280;22294;52.044;4.582;2022-09-09T07:18:50;75134.91;;;-144.37;67.95
36258;BME280;22294;52.044;4.582;2022-09-09T07:21:16;75126.75;;;-144.37;67.91
36258;BME280;22294;52.044;4.582;2022-09-09T07:23:42;75126.75;;;-144.37;67.48
36258;BME280;22294;52.044;4.582;2022-09-09T07:26:15;75128.78;;;-144.37;67.78
36258;BME280;22294;52.044;4.582;2022-09-09T07:28:41;75122.66;;;-144.37;67.45
36258;BME280;22294;52.044;4.582;2022-09-09T07:31:08;75120.59;;;-144.37;67.31
36258;BME280;22294;52.044;4.582;2022-09-09T07:33:38;75124.69;;;-144.37;67.50
36258;BME280;22294;52.044;4.582;2022-09-09T07:36:09;75116.50;;;-144.37;67.27
36258;BME280;22294;52.044;4.582;2022-09-09T07:38:42;75120.59;;;-144.37;67.18
36258;BME280;22294;52.044;4.582;2022-09-09T07:41:12;75120.59;;;-144.37;67.05
36258;BME280;22294;52.044;4.582;2022-09-09T07:43:42;75126.75;;;-144.37;67.55
36258;BME280;22294;52.044;4.582;2022-09-09T07:46:09;75118.56;;;-144.37;67.15
36258;BME280;22294;52.044;4.582;2022-09-09T07:48:34;75118.56;;;-144.37;67.33
36258;BME280;22294;52.044;4.582;2022-09-09T07:51:05;75126.75;;;-144.37;67.00
36258;BME280;22294;52.044;4.582;2022-09-09T07:53:31;75130.81;;;-144.37;67.24
36258;BME280;22294;52.044;4.582;2022-09-09T07:56:03;75124.69;;;-144.37;67.21
36258;BME280;22294;52.044;4.582;2022-09-09T07:58:29;75130.81;;;-144.37;66.98
36258;BME280;22294;52.044;4.582;2022-09-09T08:00:54;75126.75;;;-144.37;67.21
36258;BME280;22294;52.044;4.582;2022-09-09T08:03:19;75139.00;;;-144.37;67.10
36258;BME280;22294;52.044;4.582;2022-09-09T08:05:47;75136.97;;;-144.37;67.06
36258;BME280;22294;52.044;4.582;2022-09-09T08:08:12;75130.81;;;-144.37;67.12
36258;BME280;22294;52.044;4.582;2022-09-09T08:10:37;75130.81;;;-144.37;67.42
36258;BME280;22294;52.044;4.582;2022-09-09T08:13:02;75128.78;;;-144.37;67.37
36258;BME280;22294;52.044;4.582;2022-09-09T08:15:28;75118.56;;;-144.37;67.06
36258;BME280;22294;52.044;4.582;2022-09-09T08:17:56;75122.66;;;-144.37;66.91
36258;BME280;22294;52.044;4.582;2022-09-09T08:20:21;75126.75;;;-144.37;66.87
36258;BME280;22294;52.044;4.582;2022-09-09T08:22:48;75122.66;;;-144.37;67.04
36258;BME280;22294;52.044;4.582;2022-09-09T08:25:15;75120.59;;;-144.37;67.51
36258;BME280;22294;52.044;4.582;2022-09-09T08:27:40;75116.50;;;-144.37;67.97
36258;BME280;22294;52.044;4.582;2022-09-09T08:30:06;75120.59;;;-144.37;67.70
36258;BME280;22294;52.044;4.582;2022-09-09T08:32:31;75106.28;;;-144.37;67.69
36258;BME280;22294;52.044;4.582;2022-09-09T08:34:57;75108.34;;;-144.37;67.52
36258;BME280;22294;52.044;4.582;2022-09-09T08:37:22;75116.50;;;-144.37;67.43
36258;BME280;22294;52.044;4.582;2022-09-09T08:39:47;75112.44;;;-144.37;66.84
36258;BME280;22294;52.044;4.582;2022-09-09T08:42:30;75106.28;;;-144.37;67.06
36258;BME280;22294;52.044;4.582;2022-09-09T08:45:20;75116.50;;;-144.37;67.18
36258;BME280;22294;52.044;4.582;2022-09-09T08:48:08;75110.38;;;-144.37;66.87
36258;BME280;22294;52.044;4.582;2022-09-09T08:50:36;75114.47;;;-144.37;66.90
36258;BME280;22294;52.044;4.582;2022-09-09T08:53:23;75108.34;;;-144.37;66.69
36258;BME280;22294;52.044;4.582;2022-09-09T08:55:52;75106.28;;;-144.37;66.73
36258;BME280;22294;52.044;4.582;2022-09-09T08:58:32;75114.47;;;-144.37;66.94
36258;BME280;22294;52.044;4.582;2022-09-09T09:09:18;75143.09;;;-144.37;70.18
36258;BME280;22294;52.044;4.582;2022-09-09T09:11:49;75151.28;;;-144.37;71.29
36258;BME280;22294;52.044;4.582;2022-09-09T09:14:23;75145.13;;;-144.37;71.93
36258;BME280;22294;52.044;4.582;2022-09-09T09:17:02;75153.31;;;-144.37;71.64
36258;BME280;22294;52.044;4.582;2022-09-09T09:19:29;75159.44;;;-144.37;71.80
36258;BME280;22294;52.044;4.582;2022-09-09T09:24:49;75153.31;;;-144.37;71.56
36258;BME280;22294;52.044;4.582;2022-09-09T09:27:36;75153.31;;;-144.37;71.78
36258;BME280;22294;52.044;4.582;2022-09-09T09:30:25;75151.28;;;-144.37;71.86
36258;BME280;22294;52.044;4.582;2022-09-09T09:33:03;75143.09;;;-144.37;71.71
36258;BME280;22294;52.044;4.582;2022-09-09T09:35:31;75139.00;;;-144.37;72.00
36258;BME280;22294;52.044;4.582;2022-09-09T09:37:57;75130.81;;;-144.37;72.31
36258;BME280;22294;52.044;4.582;2022-09-09T09:40:22;75110.38;;;-144.37;73.24
36258;BME280;22294;52.044;4.582;2022-09-09T09:42:54;75100.16;;;-144.37;72.90
36258;BME280;22294;52.044;4.582;2022-09-09T09:45:26;75087.91;;;-144.37;73.10
36258;BME280;22294;52.044;4.582;2022-09-09T09:47:58;75079.72;;;-144.37;72.47
36258;BME280;22294;52.044;4.582;2022-09-09T09:50:24;75073.56;;;-144.37;72.95
36258;BME280;22294;52.044;4.582;2022-09-09T09:52:59;75059.25;;;-144.37;72.42
36258;BME280;22294;52.044;4.582;2022-09-09T09:55:28;75053.13;;;-144.37;70.86
36258;BME280;22294;52.044;4.582;2022-09-09T09:58:01;75040.88;;;-144.37;70.65
36258;BME280;22294;52.044;4.582;2022-09-09T10:00:26;75028.59;;;-144.37;70.65
36258;BME280;22294;52.044;4.582;2022-09-09T10:02:52;75030.63;;;-144.37;69.51
36258;BME280;22294;52.044;4.582;2022-09-09T10:05:30;75020.41;;;-144.37;69.92
36258;BME280;22294;52.044;4.582;2022-09-09T10:08:12;75006.09;;;-144.37;70.32
36258;BME280;22294;52.044;4.582;2022-09-09T10:13:58;74995.88;;;-144.37;69.91
36258;BME280;22294;52.044;4.582;2022-09-09T10:18:59;74997.94;;;-144.37;69.99
36258;BME280;22294;52.044;4.582;2022-09-09T10:29:40;75036.78;;;-144.37;70.91
36258;BME280;22294;52.044;4.582;2022-09-09T10:32:33;75049.03;;;-144.37;71.62
36258;BME280;22294;52.044;4.582;2022-09-09T10:35:24;75044.97;;;-144.37;72.64
36258;BME280;22294;52.044;4.582;2022-09-09T10:40:42;75049.03;;;-144.37;71.86
36258;BME280;22294;52.044;4.582;2022-09-09T10:43:46;75032.69;;;-144.37;71.77
36258;BME280;22294;52.044;4.582;2022-09-09T10:46:40;75038.81;;;-144.37;70.99
36258;BME280;22294;52.044;4.582;2022-09-09T10:52:01;75038.81;;;-144.37;70.98
36258;BME280;22294;52.044;4.582;2022-09-09T10:55:02;75042.91;;;-144.37;71.71
36258;BME280;22294;52.044;4.582;2022-09-09T10:57:46;75057.22;;;-144.37;70.94
36258;BME280;22294;52.044;4.582;2022-09-09T11:00:23;75063.34;;;-144.37;71.53
36258;BME280;22294;52.044;4.582;2022-09-09T11:02:58;75073.56;;;-144.37;72.08
36258;BME280;22294;52.044;4.582;2022-09-09T11:05:42;75071.53;;;-144.37;72.11
36258;BME280;22294;52.044;4.582;2022-09-09T11:08:17;75069.50;;;-144.37;72.56
36258;BME280;22294;52.044;4.582;2022-09-09T11:16:16;75061.31;;;-144.37;73.93
36258;BME280;22294;52.044;4.582;2022-09-09T11:18:44;75069.50;;;-144.37;73.63
36258;BME280;22294;52.044;4.582;2022-09-09T11:21:27;75055.19;;;-144.37;73.58
36258;BME280;22294;52.044;4.582;2022-09-09T11:24:03;75053.13;;;-144.37;73.35
36258;BME280;22294;52.044;4.582;2022-09-09T11:26:54;75061.31;;;-144.37;73.52
36258;BME280;22294;52.044;4.582;2022-09-09T11:29:41;75057.22;;;-144.37;73.03
36258;BME280;22294;52.044;4.582;2022-09-09T11:34:54;75028.59;;;-144.37;73.68
36258;BME280;22294;52.044;4.582;2022-09-09T11:37:49;75008.16;;;-144.37;73.21
36258;BME280;22294;52.044;4.582;2022-09-09T11:40:23;74983.63;;;-144.37;72.10
36258;BME280;22294;52.044;4.582;2022-09-09T11:43:02;74967.25;;;-144.37;71.37
36258;BME280;22294;52.044;4.582;2022-09-09T11:45:29;74950.91;;;-144.37;70.43
36258;BME280;22294;52.044;4.582;2022-09-09T11:48:00;74948.84;;;-144.37;70.04
36258;BME280;22294;52.044;4.582;2022-09-09T11:52:51;74959.09;;;-144.37;69.08
36258;BME280;22294;52.044;4.582;2022-09-09T11:55:30;74971.34;;;-144.37;69.02
36258;BME280;22294;52.044;4.582;2022-09-09T11:58:17;74981.56;;;-144.37;68.78
36258;BME280;22294;52.044;4.582;2022-09-09T12:00:45;74985.66;;;-144.37;68.85
36258;BME280;22294;52.044;4.582;2022-09-09T12:06:00;75002.03;;;-144.37;71.14
36258;BME280;22294;52.044;4.582;2022-09-09T12:08:35;75020.41;;;-144.37;72.07
36258;BME280;22294;52.044;4.582;2022-09-09T12:11:02;75026.56;;;-144.37;73.61
36258;BME280;22294;52.044;4.582;2022-09-09T12:13:29;75036.78;;;-144.37;74.26
36258;BME280;22294;52.044;4.582;2022-09-09T12:15:58;75034.72;;;-144.37;74.37
36258;BME280;22294;52.044;4.582;2022-09-09T12:18:38;75036.78;;;-144.37;75.67
36258;BME280;22294;52.044;4.582;2022-09-09T12:21:41;75040.88;;;-144.37;75.51
36258;BME280;22294;52.044;4.582;2022-09-09T12:24:11;75040.88;;;-144.37;75.15
36258;BME280;22294;52.044;4.582;2022-09-09T12:26:44;75040.88;;;-144.37;75.61
36258;BME280;22294;52.044;4.582;2022-09-09T12:32:17;75036.78;;;-144.37;76.37
36258;BME280;22294;52.044;4.582;2022-09-09T12:34:52;75047.00;;;-144.37;76.54
36258;BME280;22294;52.044;4.582;2022-09-09T12:37:40;75044.97;;;-144.37;77.27
36258;BME280;22294;52.044;4.582;2022-09-09T12:40:24;75047.00;;;-144.37;77.29
36258;BME280;22294;52.044;4.582;2022-09-09T12:42:50;75040.88;;;-144.37;77.38
36258;BME280;22294;52.044;4.582;2022-09-09T12:45:18;75034.72;;;-144.37;75.60
36258;BME280;22294;52.044;4.582;2022-09-09T12:47:54;75036.78;;;-144.37;74.83
36258;BME280;22294;52.044;4.582;2022-09-09T12:50:23;75036.78;;;-144.37;74.80
36258;BME280;22294;52.044;4.582;2022-09-09T12:52:55;75036.78;;;-144.37;74.89
36258;BME280;22294;52.044;4.582;2022-09-09T12:55:35;75034.72;;;-144.37;75.32
36258;BME280;22294;52.044;4.582;2022-09-09T12:58:02;75024.50;;;-144.37;74.98
36258;BME280;22294;52.044;4.582;2022-09-09T13:00:32;75016.34;;;-144.37;74.97
36258;BME280;22294;52.044;4.582;2022-09-09T13:03:03;75022.47;;;-144.37;74.76
36258;BME280;22294;52.044;4.582;2022-09-09T13:05:39;75020.41;;;-144.37;74.98
36258;BME280;22294;52.044;4.582;2022-09-09T13:08:06;75018.38;;;-144.37;75.20
36258;BME280;22294;52.044;4.582;2022-09-09T13:10:39;75012.25;;;-144.37;75.43
36258;BME280;22294;52.044;4.582;2022-09-09T13:13:14;75008.16;;;-144.37;75.42
36258;BME280;22294;52.044;4.582;2022-09-09T13:15:54;75016.34;;;-144.37;74.36
36258;BME280;22294;52.044;4.582;2022-09-09T13:18:33;75016.34;;;-144.37;73.80
36258;BME280;22294;52.044;4.582;2022-09-09T13:20:59;75006.09;;;-144.37;74.79
36258;BME280;22294;52.044;4.582;2022-09-09T13:23:36;75006.09;;;-144.37;74.32
36258;BME280;22294;52.044;4.582;2022-09-09T13:26:20;74995.88;;;-144.37;73.74
36258;BME280;22294;52.044;4.582;2022-09-09T13:28:48;74981.56;;;-144.37;74.10
36258;BME280;22294;52.044;4.582;2022-09-09T13:31:28;74975.44;;;-144.37;73.42
36258;BME280;22294;52.044;4.582;2022-09-09T13:33:54;74967.25;;;-144.37;73.95
36258;BME280;22294;52.044;4.582;2022-09-09T13:36:30;74955.00;;;-144.37;74.75
36258;BME280;22294;52.044;4.582;2022-09-09T13:38:58;74934.56;;;-144.37;74.13
36258;BME280;22294;52.044;4.582;2022-09-09T13:41:36;74932.50;;;-144.37;73.06
36258;BME280;22294;52.044;4.582;2022-09-09T13:44:03;74918.19;;;-144.37;73.19
36258;BME280;22294;52.044;4.582;2022-09-09T13:46:36;74924.31;;;-144.37;71.82
36258;BME280;22294;52.044;4.582;2022-09-09T13:49:22;74920.25;;;-144.37;72.23
36258;BME280;22294;52.044;4.582;2022-09-09T13:51:50;74924.31;;;-144.37;72.97
36258;BME280;22294;52.044;4.582;2022-09-09T13:54:19;74924.31;;;-144.37;72.01
36258;BME280;22294;52.044;4.582;2022-09-09T13:56:46;74934.56;;;-144.37;71.65
36258;BME280;22294;52.044;4.582;2022-09-09T13:59:16;74959.09;;;-144.37;72.98
36258;BME280;22294;52.044;4.582;2022-09-09T14:01:42;74985.66;;;-144.37;73.69
36258;BME280;22294;52.044;4.582;2022-09-09T14:04:09;75006.09;;;-144.37;73.93
36258;BME280;22294;52.044;4.582;2022-09-09T14:06:35;75010.19;;;-144.37;74.58
36258;BME280;22294;52.044;4.582;2022-09-09T14:09:04;75020.41;;;-144.37;76.01
36258;BME280;22294;52.044;4.582;2022-09-09T14:11:29;75022.47;;;-144.37;75.94
36258;BME280;22294;52.044;4.582;2022-09-09T14:13:54;75034.72;;;-144.37;75.65
36258;BME280;22294;52.044;4.582;2022-09-09T14:16:21;75038.81;;;-144.37;76.09
36258;BME280;22294;52.044;4.582;2022-09-09T14:18:46;75053.13;;;-144.37;76.78
36258;BME280;22294;52.044;4.582;2022-09-09T14:21:12;75053.13;;;-144.37;76.84
36258;BME280;22294;52.044;4.582;2022-09-09T14:23:37;75061.31;;;-144.37;76.63
36258;BME280;22294;52.044;4.582;2022-09-09T14:26:04;75059.25;;;-144.37;75.70
36258;BME280;22294;52.044;4.582;2022-09-09T14:28:29;75061.31;;;-144.37;75.80